Time;durP1;ratioP1;P1;durP2;ratioP2;P2;SDS_P1;SDS_P2;PMS_P1;PMS_P2;Temp;Humidity;BMP_temperature;BMP_pressure;BME280_temperature;BME280_humidity;BME280_pressure;Samples;Min_cycle;Max_cycle;Signal;HPM_P1;HPM_P2
2021/03/07 01:05:23;;;;;;;10.48;9.10;;;0.50;75.70;;;;;;5243589;23;20287;-92
2021/03/07 01:07:50;;;;;;;14.18;10.50;;;0.50;75.70;;;;;;4963712;28;20209;-91
2021/03/07 01:10:18;;;;;;;14.95;10.00;;;0.50;75.70;;;;;;4970953;28;20212;-91
2021/03/07 01:12:47;;;;;;;10.60;9.50;;;0.50;75.70;;;;;;4977577;28;20215;-92
2021/03/07 01:15:14;;;;;;;11.70;9.25;;;0.50;76.10;;;;;;4975583;28;20282;-91
2021/03/07 01:17:40;;;;;;;14.70;9.45;;;0.40;76.50;;;;;;4980222;28;20209;-91
2021/03/07 01:20:10;;;;;;;13.35;10.20;;;0.40;77.10;;;;;;4976665;28;20217;-91
2021/03/07 01:22:47;;;;;;;12.80;9.50;;;0.40;77.20;;;;;;4977970;29;20219;-91
2021/03/07 01:25:22;;;;;;;13.13;10.50;;;0.40;78.60;;;;;;4987263;28;20232;-92
2021/03/07 01:27:49;;;;;;;12.20;10.38;;;0.40;77.60;;;;;;5161018;23;20239;-91
2021/03/07 01:30:18;;;;;;;12.35;10.63;;;0.40;77.60;;;;;;4992536;28;20205;-91
2021/03/07 01:32:45;;;;;;;13.35;10.10;;;0.40;77.50;;;;;;4991855;28;20204;-92
2021/03/07 01:35:16;;;;;;;12.15;10.10;;;0.50;77.70;;;;;;4988431;28;20220;-91
2021/03/07 01:37:51;;;;;;;16.00;12.40;;;0.40;78.00;;;;;;4991317;28;20223;-91
2021/03/07 01:40:20;;;;;;;15.85;10.10;;;0.40;78.10;;;;;;4973954;28;20593;-92
2021/03/07 01:42:57;;;;;;;13.07;10.50;;;0.40;78.20;;;;;;4973560;28;20213;-91
2021/03/07 01:45:33;;;;;;;12.25;10.98;;;0.40;78.20;;;;;;4982626;28;20228;-92
2021/03/07 01:48:12;;;;;;;14.57;10.25;;;0.40;78.20;;;;;;4979926;28;20718;-91
2021/03/07 01:50:43;;;;;;;17.10;12.75;;;0.30;78.50;;;;;;4975339;28;20217;-92
2021/03/07 01:53:11;;;;;;;15.75;10.25;;;0.30;78.90;;;;;;4972283;28;20212;-92
2021/03/07 01:55:39;;;;;;;17.08;11.20;;;0.20;78.70;;;;;;4979336;28;20235;-92
2021/03/07 01:58:10;;;;;;;13.25;10.20;;;0.20;79.10;;;;;;4973240;28;20202;-92
2021/03/07 02:00:39;;;;;;;11.38;10.25;;;0.10;79.40;;;;;;4970484;28;20676;-92
2021/03/07 02:03:15;;;;;;;15.75;10.93;;;0.10;79.80;;;;;;4963451;28;20201;-92
2021/03/07 02:05:47;;;;;;;12.50;11.18;;;0.10;80.00;;;;;;4976449;28;20650;-91
2021/03/07 02:17:44;;;;;;;14.75;10.82;;;-0.10;80.80;;;;;;4968471;28;20231;-91
2021/03/07 02:23:58;;;;;;;15.40;10.88;;;-0.10;80.60;;;;;;4967769;28;20294;-91
2021/03/07 02:26:50;;;;;;;11.52;10.27;;;-0.10;80.90;;;;;;4972082;28;20216;-91
2021/03/07 02:29:28;;;;;;;15.75;11.90;;;-0.10;80.80;;;;;;4960812;29;20225;-90
2021/03/07 02:32:40;;;;;;;16.48;11.75;;;-0.20;80.90;;;;;;4960993;28;20204;-91
2021/03/07 02:35:20;;;;;;;13.63;11.00;;;-0.20;82.00;;;;;;4943692;28;20224;-92
2021/03/07 02:38:17;;;;;;;12.75;10.27;;;-0.20;82.50;;;;;;4960586;28;20221;-91
2021/03/07 02:40:54;;;;;;;13.45;11.32;;;-0.20;82.30;;;;;;4970023;28;20231;-90
2021/03/07 02:46:30;;;;;;;14.73;11.32;;;-0.10;81.70;;;;;;4965311;28;20236;-90
2021/03/07 02:48:58;;;;;;;17.63;10.98;;;-0.20;81.70;;;;;;4986418;28;20211;-90
2021/03/07 02:51:28;;;;;;;12.32;9.38;;;-0.20;81.90;;;;;;4978446;28;20192;-93
2021/03/07 02:55:07;;;;;;;17.38;11.68;;;-0.30;82.30;;;;;;4970205;28;20272;-91
2021/03/07 02:57:42;;;;;;;16.02;11.50;;;-0.20;83.10;;;;;;4844723;29;20266;-91
2021/03/07 03:00:40;;;;;;;13.52;10.75;;;-0.30;83.30;;;;;;4943247;28;20228;-92
2021/03/07 03:03:20;;;;;;;14.48;10.63;;;-0.30;83.50;;;;;;4989441;28;20209;-92
2021/03/07 03:05:52;;;;;;;13.38;11.55;;;-0.30;83.60;;;;;;4980585;28;20281;-91
2021/03/07 03:11:25;;;;;;;14.82;10.77;;;-0.30;83.80;;;;;;4899520;29;20200;-90
2021/03/07 03:14:09;;;;;;;15.15;11.05;;;-0.30;83.80;;;;;;4970922;28;20699;-91
2021/03/07 03:16:56;;;;;;;13.13;10.70;;;-0.40;83.50;;;;;;4971857;28;20287;-90
2021/03/07 03:19:37;;;;;;;15.95;10.63;;;-0.40;83.90;;;;;;4967332;28;20204;-90
2021/03/07 03:22:06;;;;;;;12.38;9.65;;;-0.30;84.10;;;;;;4970203;28;20247;-91
2021/03/07 03:25:30;;;;;;;14.63;11.65;;;-0.40;84.10;;;;;;4965489;28;20644;-91
2021/03/07 03:28:19;;;;;;;14.82;11.45;;;-0.40;84.10;;;;;;4965346;28;20236;-91
2021/03/07 03:30:49;;;;;;;14.52;9.90;;;-0.30;83.90;;;;;;4963780;28;20213;-91
2021/03/07 03:33:27;;;;;;;12.05;10.50;;;-0.40;83.40;;;;;;4973259;28;20284;-90
2021/03/07 03:39:06;;;;;;;13.23;9.30;;;-0.40;83.80;;;;;;4956865;28;20569;-91
2021/03/07 03:48:20;;;;;;;14.65;13.20;;;-0.50;85.10;;;;;;4924730;28;20682;-91
2021/03/07 03:51:19;;;;;;;15.07;11.05;;;-0.60;85.70;;;;;;4960077;28;20202;-90
2021/03/07 03:54:15;;;;;;;13.80;10.68;;;-0.60;86.90;;;;;;4861978;29;20299;-91
2021/03/07 04:03:28;;;;;;;13.23;10.43;;;-0.50;87.20;;;;;;4898621;29;20207;-90
2021/03/07 04:10:20;;;;;;;11.90;9.02;;;-0.50;86.80;;;;;;4908583;29;20218;-91
2021/03/07 04:13:20;;;;;;;14.05;10.02;;;-0.60;86.70;;;;;;4911453;29;20204;-91
2021/03/07 04:19:05;;;;;;;15.48;9.82;;;-0.60;86.50;;;;;;4969244;28;20233;-90
2021/03/07 04:21:48;;;;;;;14.27;10.50;;;-0.60;86.30;;;;;;4959754;29;20837;-90
2021/03/07 04:24:44;;;;;;;10.18;9.18;;;-0.50;86.20;;;;;;4978677;28;20236;-90
2021/03/07 04:34:51;;;;;;;14.38;11.05;;;-0.70;86.30;;;;;;4888972;29;20280;-91
2021/03/07 04:38:07;;;;;;;11.73;9.23;;;-0.80;86.70;;;;;;4927671;28;20268;-91
2021/03/07 05:22:52;;;;;;;14.75;10.45;;;-1.20;90.00;;;;;;4970137;28;20212;-91
2021/03/07 05:25:51;;;;;;;16.00;10.85;;;-1.20;90.50;;;;;;5086853;23;20249;-90
2021/03/07 05:28:29;;;;;;;12.07;9.40;;;-1.20;90.70;;;;;;4916535;29;20233;-90
2021/03/07 05:31:04;;;;;;;12.73;10.60;;;-1.10;91.10;;;;;;4990737;28;20264;-90
2021/03/07 05:33:34;;;;;;;14.48;10.15;;;-1.10;91.00;;;;;;5003672;28;20180;-90
2021/03/07 05:36:03;;;;;;;14.60;10.40;;;-1.00;91.20;;;;;;4982864;28;20194;-90
2021/03/07 05:38:32;;;;;;;13.20;9.77;;;-0.90;90.60;;;;;;4978841;28;20200;-90
2021/03/07 05:41:02;;;;;;;12.73;10.25;;;-0.90;90.50;;;;;;4971479;28;20220;-90
2021/03/07 05:44:28;;;;;;;16.13;11.30;;;-1.00;90.30;;;;;;4979465;28;20217;-90
2021/03/07 05:53:45;;;;;;;13.75;10.40;;;-0.80;90.20;;;;;;4882135;29;20217;-90
2021/03/07 05:59:55;;;;;;;12.48;10.13;;;-0.80;90.00;;;;;;4966831;28;20264;-90
2021/03/07 06:06:18;;;;;;;14.20;10.32;;;-0.90;90.40;;;;;;4961867;28;20297;-91
2021/03/07 06:20:18;;;;;;;12.80;10.52;;;-0.80;91.10;;;;;;4872064;29;20205;-91
2021/03/07 06:27:20;;;;;;;11.70;9.90;;;-0.70;90.80;;;;;;4852500;29;20616;-91
2021/03/07 06:40:33;;;;;;;13.40;10.85;;;-0.50;89.30;;;;;;4897222;29;20689;-91
2021/03/07 06:46:59;;;;;;;11.32;9.32;;;-0.40;89.70;;;;;;4895611;29;20717;-91
2021/03/07 06:50:20;;;;;;;;;;;;;;;;;;;;;
2021/03/07 06:53:34;;;;;;;13.27;9.48;;;-0.20;89.20;;;;;;4876661;29;20227;-91
2021/03/07 07:00:01;;;;;;;12.98;10.50;;;-0.10;88.00;;;;;;4936171;28;20216;-91
2021/03/07 07:09:47;;;;;;;12.07;8.35;;;0.10;87.00;;;;;;4918977;29;20250;-91
2021/03/07 07:12:46;;;;;;;10.00;8.45;;;0.20;86.20;;;;;;4890440;29;20262;-91
2021/03/07 07:15:19;;;;;;;8.95;7.88;;;0.30;85.20;;;;;;4963281;28;20286;-91
2021/03/07 07:18:50;;;;;;;11.95;8.27;;;0.50;84.60;;;;;;4976959;28;20213;-90
2021/03/07 07:59:58;;;;;;;9.82;8.10;;;2.00;78.30;;;;;;4837050;29;20727;-84
2021/03/07 08:02:49;;;;;;;9.57;8.30;;;2.10;77.80;;;;;;4951150;29;20209;-82
2021/03/07 08:05:43;;;;;;;9.65;7.72;;;2.30;77.80;;;;;;4956596;28;20298;-82
2021/03/07 08:08:21;;;;;;;9.68;8.77;;;2.50;76.60;;;;;;4980631;28;20205;-88
2021/03/07 08:10:51;;;;;;;8.95;8.05;;;3.10;76.20;;;;;;4981573;28;20206;-89
2021/03/07 08:13:51;;;;;;;8.95;7.53;;;4.00;74.30;;;;;;4976154;28;20206;-90
2021/03/07 08:16:56;;;;;;;12.50;8.70;;;4.60;70.90;;;;;;4969509;28;20578;-90
2021/03/07 08:19:46;;;;;;;10.90;8.47;;;4.80;68.50;;;;;;4960457;28;20845;-90
2021/03/07 08:22:31;;;;;;;9.77;8.23;;;4.90;67.30;;;;;;4975049;28;20573;-90
2021/03/07 08:28:01;;;;;;;9.65;8.63;;;4.70;66.10;;;;;;4958888;28;20511;-91
2021/03/07 08:30:42;;;;;;;9.30;8.43;;;4.70;66.80;;;;;;4969250;28;20218;-91
2021/03/07 08:33:43;;;;;;;10.27;9.27;;;5.00;66.50;;;;;;4967165;28;20452;-90
2021/03/07 08:36:58;;;;;;;9.97;8.60;;;5.50;65.70;;;;;;4962880;28;20488;-91
2021/03/07 08:39:36;;;;;;;10.40;9.30;;;5.90;64.40;;;;;;4956065;28;20474;-90
2021/03/07 08:42:12;;;;;;;9.20;8.30;;;6.20;62.90;;;;;;4958418;28;20473;-90
2021/03/07 08:45:32;;;;;;;9.53;8.60;;;7.10;62.20;;;;;;4971440;28;20575;-91
2021/03/07 08:48:06;;;;;;;9.30;8.30;;;8.20;58.80;;;;;;4964904;28;20530;-91
2021/03/07 08:50:59;;;;;;;10.77;9.70;;;8.00;56.40;;;;;;4984496;28;20448;-91
2021/03/07 08:56:58;;;;;;;10.57;9.27;;;8.10;57.20;;;;;;4967235;28;20449;-91
2021/03/07 08:59:34;;;;;;;10.10;9.10;;;8.90;55.60;;;;;;4979844;28;20462;-90
2021/03/07 09:02:22;;;;;;;9.40;8.40;;;9.50;55.00;;;;;;4976108;28;20473;-89
2021/03/07 09:05:07;;;;;;;9.80;8.90;;;11.00;53.00;;;;;;4985839;28;20471;-90
2021/03/07 09:07:46;;;;;;;10.43;9.43;;;13.00;49.20;;;;;;4982906;28;20456;-91
2021/03/07 09:24:10;;;;;;;9.30;8.60;;;14.40;43.80;;;;;;5104768;27;719164;-86
2021/03/07 09:26:36;;;;;;;10.60;9.17;;;14.10;40.90;;;;;;5124011;28;20190;-86
2021/03/07 09:29:03;;;;;;;10.77;9.87;;;13.50;43.10;;;;;;5105247;28;20434;-87
2021/03/07 09:31:33;;;;;;;10.10;9.30;;;13.50;42.60;;;;;;5094590;28;20489;-85
2021/03/07 12:56:01;;;;;;;14.47;13.37;;;26.00;26.80;;;;;;5033691;28;20508;-91
2021/03/07 12:59:31;;;;;;;;;;;;;;;;;;;;;
2021/03/07 16:17:57;;;;;;;14.30;12.90;;;15.60;37.80;;;;;;5015196;28;20885;-91
2021/03/07 16:27:22;;;;;;;15.20;13.70;;;15.20;38.10;;;;;;5005531;28;20980;-90
2021/03/07 16:30:12;;;;;;;14.90;13.40;;;14.60;38.80;;;;;;5028281;28;20432;-91
2021/03/07 16:32:55;;;;;;;16.40;14.30;;;13.60;40.20;;;;;;5169919;22;20803;-91
2021/03/07 16:35:27;;;;;;;15.80;14.30;;;13.00;41.80;;;;;;5027668;28;20509;-91
2021/03/07 16:38:20;;;;;;;16.00;13.90;;;12.40;43.10;;;;;;5026831;28;20870;-90
2021/03/07 16:41:12;;;;;;;15.10;13.60;;;12.10;43.90;;;;;;5018925;28;20433;-90
2021/03/07 16:44:11;;;;;;;16.47;14.27;;;11.70;44.50;;;;;;5022949;28;20521;-90
2021/03/07 16:46:44;;;;;;;14.53;13.10;;;11.40;46.10;;;;;;5015892;28;20442;-91
2021/03/07 16:49:17;;;;;;;15.73;14.00;;;11.10;46.10;;;;;;5024933;28;20442;-90
2021/03/07 16:51:51;;;;;;;15.27;13.67;;;10.90;46.60;;;;;;5023997;28;20469;-90
2021/03/07 16:54:22;;;;;;;16.47;14.77;;;10.80;47.00;;;;;;5026158;28;20474;-90
2021/03/07 16:56:56;;;;;;;15.87;14.20;;;10.70;47.20;;;;;;5027604;28;20462;-89
2021/03/07 16:59:26;;;;;;;16.17;14.53;;;10.50;47.60;;;;;;5010865;28;20447;-90
2021/03/07 17:01:56;;;;;;;16.23;14.50;;;10.40;48.40;;;;;;5019630;28;20464;-91
2021/03/07 17:04:35;;;;;;;16.50;14.70;;;10.20;48.90;;;;;;5019138;28;20465;-91
2021/03/07 17:07:14;;;;;;;16.30;14.57;;;10.10;49.80;;;;;;5018293;28;21087;-89
2021/03/07 17:09:54;;;;;;;15.37;13.23;;;10.00;50.40;;;;;;5020919;28;20448;-91
2021/03/07 17:12:59;;;;;;;14.70;13.20;;;9.90;51.60;;;;;;5018426;28;20461;-90
2021/03/07 17:16:11;;;;;;;14.77;13.20;;;9.90;51.90;;;;;;4970204;28;20505;-90
2021/03/07 17:19:04;;;;;;;16.40;12.53;;;9.70;52.80;;;;;;5018648;28;20533;-90
2021/03/07 17:21:52;;;;;;;21.13;14.40;;;9.50;53.40;;;;;;5012874;28;20469;-90
2021/03/07 17:24:34;;;;;;;15.17;13.57;;;9.50;54.50;;;;;;5021606;28;20446;-89
2021/03/07 17:27:23;;;;;;;15.73;14.03;;;9.40;54.60;;;;;;5016932;28;20576;-90
2021/03/07 17:30:17;;;;;;;15.10;13.53;;;9.30;55.00;;;;;;5022720;28;20451;-90
2021/03/07 17:32:48;;;;;;;15.70;14.20;;;9.10;55.50;;;;;;4974037;28;20489;-90
2021/03/07 17:35:33;;;;;;;16.63;14.87;;;8.90;55.90;;;;;;5021300;28;20468;-91
2021/03/07 17:38:11;;;;;;;15.70;12.93;;;8.90;56.20;;;;;;5016396;28;20490;-90
2021/03/07 17:40:45;;;;;;;16.70;13.43;;;8.80;56.60;;;;;;5020918;28;20446;-90
2021/03/07 17:43:25;;;;;;;16.60;14.90;;;8.70;56.90;;;;;;5020332;28;20852;-90
2021/03/07 17:46:01;;;;;;;16.70;14.97;;;8.60;57.10;;;;;;5030696;28;20446;-90
2021/03/07 17:48:48;;;;;;;22.63;14.97;;;8.50;57.40;;;;;;5038440;28;20532;-89
2021/03/07 17:51:23;;;;;;;15.47;13.87;;;8.50;57.90;;;;;;5030750;28;20449;-91
2021/03/07 17:54:08;;;;;;;15.97;14.33;;;8.40;58.10;;;;;;5039642;28;20485;-90
2021/03/07 17:56:38;;;;;;;17.93;13.60;;;8.40;58.00;;;;;;5033813;28;20426;-89
2021/03/07 17:59:19;;;;;;;16.10;13.90;;;8.30;58.10;;;;;;5031175;28;20461;-91
2021/03/07 18:01:56;;;;;;;16.37;14.00;;;8.30;58.30;;;;;;5026607;28;20446;-90
2021/03/07 18:08:46;;;;;;;19.60;14.67;;;8.20;58.60;;;;;;4995015;28;20490;-91
2021/03/07 18:21:56;;;;;;;18.20;15.17;;;7.90;60.00;;;;;;4885972;29;20428;-89
2021/03/07 18:24:34;;;;;;;17.70;15.90;;;7.80;60.40;;;;;;4899867;29;20456;-89
2021/03/07 18:30:09;;;;;;;16.73;15.03;;;7.70;60.70;;;;;;4948686;29;20441;-88
2021/03/07 18:32:47;;;;;;;17.83;15.07;;;7.60;61.10;;;;;;4951833;29;20452;-88
2021/03/07 18:35:19;;;;;;;20.27;16.50;;;7.50;61.40;;;;;;4933344;29;20541;-91
2021/03/07 18:37:48;;;;;;;17.93;15.60;;;7.60;61.60;;;;;;4950497;29;20573;-90
2021/03/07 18:40:17;;;;;;;19.63;15.57;;;7.50;61.30;;;;;;4951520;29;21009;-89
2021/03/07 18:42:46;;;;;;;18.87;16.73;;;7.50;61.70;;;;;;4951511;29;20543;-89
2021/03/07 18:45:21;;;;;;;20.83;16.77;;;7.50;61.80;;;;;;4994306;28;20455;-89
2021/03/07 18:47:59;;;;;;;19.77;16.53;;;7.50;61.90;;;;;;4998732;28;20467;-89
2021/03/07 18:50:34;;;;;;;21.60;16.20;;;7.50;61.80;;;;;;4985207;28;20463;-89
2021/03/07 18:53:14;;;;;;;18.80;16.77;;;7.40;63.00;;;;;;5001979;28;20502;-89
2021/03/07 18:55:44;;;;;;;21.17;16.03;;;7.30;62.70;;;;;;4998911;28;20531;-89
2021/03/07 18:58:17;;;;;;;19.40;15.60;;;7.20;63.60;;;;;;5001943;28;20471;-89
2021/03/07 19:00:50;;;;;;;21.30;19.10;;;7.20;63.60;;;;;;4999185;28;20474;-89
2021/03/07 19:03:27;;;;;;;18.53;16.53;;;7.40;63.30;;;;;;5001151;28;20471;-89
2021/03/07 19:05:57;;;;;;;20.97;17.70;;;7.20;63.30;;;;;;5000382;28;20455;-89
2021/03/07 19:08:30;;;;;;;20.60;16.50;;;7.20;63.90;;;;;;4991523;28;20566;-88
2021/03/07 19:11:30;;;;;;;23.47;17.93;;;7.20;64.10;;;;;;4998645;28;20447;-90
2021/03/07 19:17:19;;;;;;;24.37;20.23;;;7.10;65.00;;;;;;5003179;28;20466;-89
2021/03/07 19:26:55;;;;;;;23.60;18.60;;;6.80;66.20;;;;;;4920426;29;20455;-90
2021/03/07 19:29:53;;;;;;;25.87;19.40;;;6.80;66.70;;;;;;4969895;28;20455;-90
2021/03/07 19:36:11;;;;;;;21.60;18.80;;;6.50;67.80;;;;;;4989685;28;20498;-88
2021/03/07 19:38:40;;;;;;;31.23;24.03;;;6.60;67.70;;;;;;5003471;28;20521;-89
2021/03/07 19:41:12;;;;;;;28.60;21.17;;;6.50;68.00;;;;;;5004482;28;20439;-89
2021/03/07 19:44:11;;;;;;;22.17;18.90;;;6.40;68.30;;;;;;5006768;28;20502;-89
2021/03/07 19:46:49;;;;;;;25.63;20.13;;;6.40;68.70;;;;;;5012298;28;20526;-89
2021/03/07 19:49:22;;;;;;;26.87;21.07;;;6.40;68.70;;;;;;5019762;28;20454;-88
2021/03/07 19:51:50;;;;;;;26.93;20.77;;;6.20;69.20;;;;;;5019419;28;20482;-90
2021/03/07 19:57:23;;;;;;;24.80;20.70;;;6.10;70.00;;;;;;5014462;28;20454;-88
2021/03/07 19:59:50;;;;;;;22.27;18.53;;;6.00;69.90;;;;;;5005652;28;20439;-90
2021/03/07 20:02:28;;;;;;;22.13;19.07;;;6.00;70.70;;;;;;5013971;28;20463;-88
2021/03/07 20:04:59;;;;;;;23.50;19.50;;;6.00;71.10;;;;;;5019241;28;20415;-88
2021/03/07 20:07:40;;;;;;;27.93;20.17;;;5.90;71.40;;;;;;5017794;28;20463;-88
2021/03/07 20:10:21;;;;;;;26.63;20.50;;;5.90;71.80;;;;;;5012957;28;20459;-89
2021/03/07 20:12:50;;;;;;;22.20;19.73;;;5.80;71.50;;;;;;5008803;28;20513;-88
2021/03/07 20:15:40;;;;;;;27.47;20.73;;;5.60;71.90;;;;;;5009004;28;20515;-88
2021/03/07 20:18:53;;;;;;;24.60;19.80;;;5.50;72.20;;;;;;5005918;28;20458;-89
2021/03/07 20:21:29;;;;;;;25.03;18.70;;;5.30;74.50;;;;;;5004408;28;20469;-90
2021/03/07 20:27:02;;;;;;;24.80;19.57;;;5.30;74.10;;;;;;5008225;28;20462;-88
2021/03/07 20:29:45;;;;;;;27.80;21.23;;;5.20;74.40;;;;;;5008866;28;20446;-88
2021/03/07 20:32:14;;;;;;;28.93;20.57;;;5.00;76.00;;;;;;5007472;28;20443;-89
2021/03/07 20:35:00;;;;;;;26.90;22.60;;;5.00;76.60;;;;;;5012231;28;20496;-88
2021/03/07 20:37:30;;;;;;;29.87;22.30;;;5.10;76.40;;;;;;5001746;28;20469;-88
2021/03/07 20:40:46;;;;;;;;;;;;;;;;;;;;;
2021/03/07 20:46:36;;;;;;;25.20;21.40;;;4.90;76.10;;;;;;5005699;28;20454;-88
2021/03/07 20:49:13;;;;;;;24.10;19.50;;;4.90;76.20;;;;;;4999631;28;20450;-88
2021/03/07 20:58:22;;;;;;;30.43;20.43;;;4.70;77.60;;;;;;4999759;28;20466;-89
2021/03/07 21:11:36;;;;;;;20.60;18.07;;;4.50;79.90;;;;;;4906410;29;20500;-93
2021/03/07 21:14:08;;;;;;;30.00;22.00;;;4.50;79.20;;;;;;4908572;29;20550;-89
2021/03/07 21:16:35;;;;;;;26.90;20.90;;;4.50;79.30;;;;;;4932325;29;20459;-85
2021/03/07 21:19:01;;;;;;;28.27;22.67;;;4.40;79.60;;;;;;4929358;29;20446;-85
2021/03/07 21:21:27;;;;;;;32.93;23.10;;;4.30;80.50;;;;;;4989984;28;20470;-85
2021/03/07 21:23:56;;;;;;;24.60;20.97;;;4.20;81.80;;;;;;4995478;28;20484;-85
2021/03/07 21:26:25;;;;;;;26.70;21.77;;;4.10;82.70;;;;;;4995993;28;20491;-84
2021/03/07 21:28:52;;;;;;;26.50;21.25;;;4.20;82.30;;;;;;4998453;28;20854;-83
2021/03/07 21:31:18;;;;;;;27.23;20.63;;;4.30;81.40;;;;;;5001524;28;20229;-84
2021/03/07 21:33:45;;;;;;;29.10;22.10;;;4.30;81.30;;;;;;5012675;28;20472;-84
